sensor_id;sensor_type;location;lat;lon;timestamp;P1;durP1;ratioP1;P2;durP2;ratioP2
48859;SDS011;34679;51.436;-2.518;2023-12-14T00:00:26;14.57;;;4.40;;
48859;SDS011;34679;51.436;-2.518;2023-12-14T00:02:52;8.20;;;4.30;;
48859;SDS011;34679;51.436;-2.518;2023-12-14T00:05:18;13.75;;;5.05;;
48859;SDS011;34679;51.436;-2.518;2023-12-14T00:07:43;8.27;;;4.28;;
48859;SDS011;34679;51.436;-2.518;2023-12-14T00:10:09;15.30;;;4.60;;
48859;SDS011;34679;51.436;-2.518;2023-12-14T00:12:35;10.77;;;3.80;;
48859;SDS011;34679;51.436;-2.518;2023-12-14T00:15:01;10.40;;;4.30;;
48859;SDS011;34679;51.436;-2.518;2023-12-14T00:17:26;9.57;;;3.65;;
48859;SDS011;34679;51.436;-2.518;2023-12-14T00:19:53;7.82;;;3.53;;
48859;SDS011;34679;51.436;-2.518;2023-12-14T00:22:18;6.22;;;2.92;;
48859;SDS011;34679;51.436;-2.518;2023-12-14T00:24:44;9.45;;;4.15;;
48859;SDS011;34679;51.436;-2.518;2023-12-14T00:27:09;7.25;;;3.63;;
48859;SDS011;34679;51.436;-2.518;2023-12-14T00:29:35;11.10;;;3.42;;
48859;SDS011;34679;51.436;-2.518;2023-12-14T00:32:01;6.63;;;3.60;;
48859;SDS011;34679;51.436;-2.518;2023-12-14T00:34:26;7.47;;;3.70;;
48859;SDS011;34679;51.436;-2.518;2023-12-14T00:36:52;7.28;;;3.28;;
48859;SDS011;34679;51.436;-2.518;2023-12-14T00:39:18;12.07;;;3.90;;
48859;SDS011;34679;51.436;-2.518;2023-12-14T00:41:43;12.48;;;3.97;;
48859;SDS011;34679;51.436;-2.518;2023-12-14T00:44:09;6.57;;;3.28;;
48859;SDS011;34679;51.436;-2.518;2023-12-14T00:46:35;7.25;;;3.38;;
48859;SDS011;34679;51.436;-2.518;2023-12-14T00:49:00;9.07;;;3.38;;
48859;SDS011;34679;51.436;-2.518;2023-12-14T00:51:27;8.32;;;3.17;;
48859;SDS011;34679;51.436;-2.518;2023-12-14T00:53:52;5.82;;;3.33;;
48859;SDS011;34679;51.436;-2.518;2023-12-14T00:56:18;11.30;;;4.20;;
48859;SDS011;34679;51.436;-2.518;2023-12-14T00:58:44;10.13;;;3.65;;
48859;SDS011;34679;51.436;-2.518;2023-12-14T01:01:09;6.78;;;3.45;;
48859;SDS011;34679;51.436;-2.518;2023-12-14T01:03:35;6.90;;;2.88;;
48859;SDS011;34679;51.436;-2.518;2023-12-14T01:06:01;11.52;;;3.85;;
48859;SDS011;34679;51.436;-2.518;2023-12-14T01:08:26;13.57;;;4.20;;
48859;SDS011;34679;51.436;-2.518;2023-12-14T01:10:52;10.43;;;3.47;;
48859;SDS011;34679;51.436;-2.518;2023-12-14T01:13:18;17.33;;;3.72;;
48859;SDS011;34679;51.436;-2.518;2023-12-14T01:15:43;10.85;;;3.40;;
48859;SDS011;34679;51.436;-2.518;2023-12-14T01:18:09;9.70;;;3.45;;
48859;SDS011;34679;51.436;-2.518;2023-12-14T01:20:35;9.25;;;3.92;;
48859;SDS011;34679;51.436;-2.518;2023-12-14T01:23:01;11.52;;;3.60;;
48859;SDS011;34679;51.436;-2.518;2023-12-14T01:25:26;9.15;;;4.30;;
48859;SDS011;34679;51.436;-2.518;2023-12-14T01:27:52;12.00;;;3.90;;
48859;SDS011;34679;51.436;-2.518;2023-12-14T01:30:17;10.23;;;4.35;;
48859;SDS011;34679;51.436;-2.518;2023-12-14T01:32:43;6.78;;;3.42;;
48859;SDS011;34679;51.436;-2.518;2023-12-14T01:35:09;12.23;;;3.88;;
48859;SDS011;34679;51.436;-2.518;2023-12-14T01:37:35;7.43;;;3.47;;
48859;SDS011;34679;51.436;-2.518;2023-12-14T01:40:00;15.82;;;3.70;;
48859;SDS011;34679;51.436;-2.518;2023-12-14T01:42:26;10.43;;;4.13;;
48859;SDS011;34679;51.436;-2.518;2023-12-14T01:44:52;11.40;;;3.95;;
48859;SDS011;34679;51.436;-2.518;2023-12-14T01:47:18;12.38;;;4.25;;
48859;SDS011;34679;51.436;-2.518;2023-12-14T01:49:43;11.10;;;3.55;;
48859;SDS011;34679;51.436;-2.518;2023-12-14T01:52:09;9.63;;;4.22;;
48859;SDS011;34679;51.436;-2.518;2023-12-14T01:54:35;9.63;;;3.75;;
48859;SDS011;34679;51.436;-2.518;2023-12-14T01:57:06;9.63;;;4.70;;
48859;SDS011;34679;51.436;-2.518;2023-12-14T01:59:32;5.03;;;4.15;;
48859;SDS011;34679;51.436;-2.518;2023-12-14T02:01:58;9.23;;;4.57;;
48859;SDS011;34679;51.436;-2.518;2023-12-14T02:04:24;10.60;;;4.35;;
48859;SDS011;34679;51.436;-2.518;2023-12-14T02:06:50;9.93;;;4.57;;
48859;SDS011;34679;51.436;-2.518;2023-12-14T02:09:16;10.65;;;4.47;;
48859;SDS011;34679;51.436;-2.518;2023-12-14T02:11:42;8.18;;;3.53;;
48859;SDS011;34679;51.436;-2.518;2023-12-14T02:14:11;9.35;;;4.97;;
48859;SDS011;34679;51.436;-2.518;2023-12-14T02:16:37;5.68;;;3.80;;
48859;SDS011;34679;51.436;-2.518;2023-12-14T02:19:05;9.27;;;4.18;;
48859;SDS011;34679;51.436;-2.518;2023-12-14T02:21:31;9.80;;;4.20;;
48859;SDS011;34679;51.436;-2.518;2023-12-14T02:23:57;12.25;;;4.07;;
48859;SDS011;34679;51.436;-2.518;2023-12-14T02:26:23;9.30;;;4.03;;
48859;SDS011;34679;51.436;-2.518;2023-12-14T02:28:48;8.63;;;3.88;;
48859;SDS011;34679;51.436;-2.518;2023-12-14T02:31:14;7.78;;;3.88;;
48859;SDS011;34679;51.436;-2.518;2023-12-14T02:33:40;12.07;;;5.22;;
48859;SDS011;34679;51.436;-2.518;2023-12-14T02:36:06;8.25;;;3.95;;
48859;SDS011;34679;51.436;-2.518;2023-12-14T02:38:32;8.77;;;4.05;;
48859;SDS011;34679;51.436;-2.518;2023-12-14T02:40:58;7.53;;;4.35;;
48859;SDS011;34679;51.436;-2.518;2023-12-14T02:43:24;12.90;;;4.72;;
48859;SDS011;34679;51.436;-2.518;2023-12-14T02:45:49;9.73;;;4.55;;
48859;SDS011;34679;51.436;-2.518;2023-12-14T02:48:15;9.15;;;3.35;;
48859;SDS011;34679;51.436;-2.518;2023-12-14T02:50:41;10.43;;;3.90;;
48859;SDS011;34679;51.436;-2.518;2023-12-14T02:53:07;6.72;;;3.58;;
48859;SDS011;34679;51.436;-2.518;2023-12-14T02:55:33;9.65;;;3.55;;
48859;SDS011;34679;51.436;-2.518;2023-12-14T02:57:58;5.75;;;2.95;;
48859;SDS011;34679;51.436;-2.518;2023-12-14T03:00:24;7.22;;;3.13;;
48859;SDS011;34679;51.436;-2.518;2023-12-14T03:02:50;13.50;;;2.95;;
48859;SDS011;34679;51.436;-2.518;2023-12-14T03:05:15;9.48;;;3.80;;
48859;SDS011;34679;51.436;-2.518;2023-12-14T03:07:41;10.73;;;3.30;;
48859;SDS011;34679;51.436;-2.518;2023-12-14T03:10:07;10.32;;;3.42;;
48859;SDS011;34679;51.436;-2.518;2023-12-14T03:12:33;6.90;;;2.90;;
48859;SDS011;34679;51.436;-2.518;2023-12-14T03:14:59;8.23;;;3.50;;
48859;SDS011;34679;51.436;-2.518;2023-12-14T03:17:25;6.68;;;3.28;;
48859;SDS011;34679;51.436;-2.518;2023-12-14T03:19:50;6.50;;;3.20;;
48859;SDS011;34679;51.436;-2.518;2023-12-14T03:22:16;6.68;;;3.35;;
48859;SDS011;34679;51.436;-2.518;2023-12-14T03:24:42;6.55;;;3.85;;
48859;SDS011;34679;51.436;-2.518;2023-12-14T03:27:07;11.15;;;3.30;;
48859;SDS011;34679;51.436;-2.518;2023-12-14T03:29:33;10.13;;;3.60;;
48859;SDS011;34679;51.436;-2.518;2023-12-14T03:31:59;9.15;;;3.58;;
48859;SDS011;34679;51.436;-2.518;2023-12-14T03:34:25;7.35;;;3.20;;
48859;SDS011;34679;51.436;-2.518;2023-12-14T03:36:51;7.63;;;2.53;;
48859;SDS011;34679;51.436;-2.518;2023-12-14T03:39:17;8.93;;;3.05;;
48859;SDS011;34679;51.436;-2.518;2023-12-14T03:41:43;6.20;;;2.78;;
48859;SDS011;34679;51.436;-2.518;2023-12-14T03:44:09;8.75;;;3.47;;
48859;SDS011;34679;51.436;-2.518;2023-12-14T03:46:35;7.25;;;2.85;;
48859;SDS011;34679;51.436;-2.518;2023-12-14T03:49:01;11.40;;;3.50;;
48859;SDS011;34679;51.436;-2.518;2023-12-14T03:51:27;9.93;;;3.30;;
48859;SDS011;34679;51.436;-2.518;2023-12-14T03:53:53;10.98;;;3.28;;
48859;SDS011;34679;51.436;-2.518;2023-12-14T03:56:19;10.75;;;3.25;;
48859;SDS011;34679;51.436;-2.518;2023-12-14T03:58:45;10.20;;;3.30;;
48859;SDS011;34679;51.436;-2.518;2023-12-14T04:01:20;7.68;;;2.95;;
48859;SDS011;34679;51.436;-2.518;2023-12-14T04:03:46;6.68;;;3.00;;
48859;SDS011;34679;51.436;-2.518;2023-12-14T04:06:13;4.93;;;3.03;;
48859;SDS011;34679;51.436;-2.518;2023-12-14T04:08:39;4.60;;;2.80;;
48859;SDS011;34679;51.436;-2.518;2023-12-14T04:11:06;12.07;;;2.70;;
48859;SDS011;34679;51.436;-2.518;2023-12-14T04:13:32;7.95;;;2.80;;
48859;SDS011;34679;51.436;-2.518;2023-12-14T04:15:58;4.70;;;2.60;;
48859;SDS011;34679;51.436;-2.518;2023-12-14T04:18:24;6.88;;;3.03;;
48859;SDS011;34679;51.436;-2.518;2023-12-14T04:20:50;4.55;;;2.33;;
48859;SDS011;34679;51.436;-2.518;2023-12-14T04:23:16;7.35;;;2.75;;
48859;SDS011;34679;51.436;-2.518;2023-12-14T04:25:41;9.68;;;3.65;;
48859;SDS011;34679;51.436;-2.518;2023-12-14T04:28:07;6.78;;;2.92;;
48859;SDS011;34679;51.436;-2.518;2023-12-14T04:30:33;8.77;;;2.78;;
48859;SDS011;34679;51.436;-2.518;2023-12-14T04:32:59;6.68;;;3.20;;
48859;SDS011;34679;51.436;-2.518;2023-12-14T04:35:24;9.15;;;2.70;;
48859;SDS011;34679;51.436;-2.518;2023-12-14T04:37:50;7.28;;;3.30;;
48859;SDS011;34679;51.436;-2.518;2023-12-14T04:40:16;6.40;;;3.38;;
48859;SDS011;34679;51.436;-2.518;2023-12-14T04:42:41;5.18;;;2.88;;
48859;SDS011;34679;51.436;-2.518;2023-12-14T04:45:07;9.80;;;3.25;;
48859;SDS011;34679;51.436;-2.518;2023-12-14T04:47:34;6.80;;;2.80;;
48859;SDS011;34679;51.436;-2.518;2023-12-14T04:50:01;13.88;;;3.53;;
48859;SDS011;34679;51.436;-2.518;2023-12-14T04:52:27;6.53;;;3.22;;
48859;SDS011;34679;51.436;-2.518;2023-12-14T04:54:52;8.57;;;3.22;;
48859;SDS011;34679;51.436;-2.518;2023-12-14T04:57:18;5.90;;;3.00;;
48859;SDS011;34679;51.436;-2.518;2023-12-14T04:59:44;5.55;;;2.50;;
48859;SDS011;34679;51.436;-2.518;2023-12-14T05:02:10;7.13;;;2.63;;
48859;SDS011;34679;51.436;-2.518;2023-12-14T05:04:35;10.45;;;2.70;;
48859;SDS011;34679;51.436;-2.518;2023-12-14T05:07:01;3.88;;;2.22;;
48859;SDS011;34679;51.436;-2.518;2023-12-14T05:09:27;5.13;;;2.67;;
48859;SDS011;34679;51.436;-2.518;2023-12-14T05:11:53;12.98;;;2.65;;
48859;SDS011;34679;51.436;-2.518;2023-12-14T05:14:18;6.65;;;2.50;;
48859;SDS011;34679;51.436;-2.518;2023-12-14T05:16:44;7.97;;;2.47;;
48859;SDS011;34679;51.436;-2.518;2023-12-14T05:19:10;7.82;;;2.78;;
48859;SDS011;34679;51.436;-2.518;2023-12-14T05:21:37;8.38;;;3.08;;
48859;SDS011;34679;51.436;-2.518;2023-12-14T05:24:03;7.38;;;2.55;;
48859;SDS011;34679;51.436;-2.518;2023-12-14T05:30:07;8.07;;;2.78;;
48859;SDS011;34679;51.436;-2.518;2023-12-14T05:32:33;6.82;;;2.47;;
48859;SDS011;34679;51.436;-2.518;2023-12-14T05:34:59;6.45;;;2.47;;
48859;SDS011;34679;51.436;-2.518;2023-12-14T05:37:25;9.45;;;2.75;;
48859;SDS011;34679;51.436;-2.518;2023-12-14T05:39:51;7.10;;;2.33;;
48859;SDS011;34679;51.436;-2.518;2023-12-14T05:42:16;8.32;;;2.85;;
48859;SDS011;34679;51.436;-2.518;2023-12-14T05:44:43;9.63;;;2.60;;
48859;SDS011;34679;51.436;-2.518;2023-12-14T05:47:10;7.55;;;2.55;;
48859;SDS011;34679;51.436;-2.518;2023-12-14T05:49:36;7.38;;;2.78;;
48859;SDS011;34679;51.436;-2.518;2023-12-14T05:52:02;6.38;;;2.40;;
48859;SDS011;34679;51.436;-2.518;2023-12-14T05:54:28;5.35;;;2.75;;
48859;SDS011;34679;51.436;-2.518;2023-12-14T05:56:54;7.53;;;2.90;;
48859;SDS011;34679;51.436;-2.518;2023-12-14T05:59:19;6.60;;;3.47;;
48859;SDS011;34679;51.436;-2.518;2023-12-14T06:01:45;5.15;;;2.70;;
48859;SDS011;34679;51.436;-2.518;2023-12-14T06:04:11;7.63;;;2.78;;
48859;SDS011;34679;51.436;-2.518;2023-12-14T06:06:38;9.00;;;2.97;;
48859;SDS011;34679;51.436;-2.518;2023-12-14T06:09:04;7.78;;;2.90;;
48859;SDS011;34679;51.436;-2.518;2023-12-14T06:11:32;11.10;;;2.88;;
48859;SDS011;34679;51.436;-2.518;2023-12-14T06:13:58;10.80;;;3.03;;
48859;SDS011;34679;51.436;-2.518;2023-12-14T06:16:24;7.13;;;3.20;;
48859;SDS011;34679;51.436;-2.518;2023-12-14T06:18:50;6.80;;;2.53;;
48859;SDS011;34679;51.436;-2.518;2023-12-14T06:21:16;11.40;;;3.25;;
48859;SDS011;34679;51.436;-2.518;2023-12-14T06:23:41;9.20;;;2.97;;
48859;SDS011;34679;51.436;-2.518;2023-12-14T06:26:07;7.35;;;2.28;;
48859;SDS011;34679;51.436;-2.518;2023-12-14T06:28:33;10.68;;;3.08;;
48859;SDS011;34679;51.436;-2.518;2023-12-14T06:30:58;8.05;;;2.70;;
48859;SDS011;34679;51.436;-2.518;2023-12-14T06:33:26;8.27;;;2.35;;
48859;SDS011;34679;51.436;-2.518;2023-12-14T06:35:52;8.02;;;2.30;;
48859;SDS011;34679;51.436;-2.518;2023-12-14T06:41:05;4.55;;;2.75;;
48859;SDS011;34679;51.436;-2.518;2023-12-14T06:43:31;6.88;;;3.28;;
48859;SDS011;34679;51.436;-2.518;2023-12-14T06:45:57;11.15;;;3.80;;
48859;SDS011;34679;51.436;-2.518;2023-12-14T06:48:23;5.95;;;2.35;;
48859;SDS011;34679;51.436;-2.518;2023-12-14T06:50:48;8.77;;;3.00;;
48859;SDS011;34679;51.436;-2.518;2023-12-14T06:53:14;7.88;;;2.30;;
48859;SDS011;34679;51.436;-2.518;2023-12-14T06:55:40;6.43;;;2.28;;
48859;SDS011;34679;51.436;-2.518;2023-12-14T06:58:06;8.15;;;2.72;;
48859;SDS011;34679;51.436;-2.518;2023-12-14T07:00:36;3.97;;;2.15;;
48859;SDS011;34679;51.436;-2.518;2023-12-14T07:03:05;8.85;;;2.55;;
48859;SDS011;34679;51.436;-2.518;2023-12-14T07:05:30;8.02;;;2.42;;
48859;SDS011;34679;51.436;-2.518;2023-12-14T07:07:57;8.80;;;2.65;;
48859;SDS011;34679;51.436;-2.518;2023-12-14T07:10:24;5.82;;;2.53;;
48859;SDS011;34679;51.436;-2.518;2023-12-14T07:12:50;5.85;;;2.22;;
48859;SDS011;34679;51.436;-2.518;2023-12-14T07:15:15;6.85;;;2.00;;
48859;SDS011;34679;51.436;-2.518;2023-12-14T07:17:41;13.15;;;2.83;;
48859;SDS011;34679;51.436;-2.518;2023-12-14T07:20:07;9.50;;;2.47;;
48859;SDS011;34679;51.436;-2.518;2023-12-14T07:22:34;6.80;;;2.38;;
48859;SDS011;34679;51.436;-2.518;2023-12-14T07:25:00;4.40;;;2.10;;
48859;SDS011;34679;51.436;-2.518;2023-12-14T07:27:26;6.07;;;2.65;;
48859;SDS011;34679;51.436;-2.518;2023-12-14T07:29:52;6.18;;;2.50;;
48859;SDS011;34679;51.436;-2.518;2023-12-14T07:32:17;7.90;;;3.25;;
48859;SDS011;34679;51.436;-2.518;2023-12-14T07:34:43;7.50;;;2.22;;
48859;SDS011;34679;51.436;-2.518;2023-12-14T07:37:09;7.50;;;2.45;;
48859;SDS011;34679;51.436;-2.518;2023-12-14T07:39:36;4.13;;;2.85;;
48859;SDS011;34679;51.436;-2.518;2023-12-14T07:42:02;4.60;;;1.90;;
48859;SDS011;34679;51.436;-2.518;2023-12-14T07:44:28;7.30;;;3.03;;
48859;SDS011;34679;51.436;-2.518;2023-12-14T07:46:55;5.15;;;2.25;;
48859;SDS011;34679;51.436;-2.518;2023-12-14T07:49:21;5.28;;;2.55;;
48859;SDS011;34679;51.436;-2.518;2023-12-14T07:51:48;10.23;;;2.28;;
48859;SDS011;34679;51.436;-2.518;2023-12-14T07:54:14;11.82;;;2.72;;
48859;SDS011;34679;51.436;-2.518;2023-12-14T07:56:40;7.43;;;2.50;;
48859;SDS011;34679;51.436;-2.518;2023-12-14T07:59:06;5.75;;;2.22;;
48859;SDS011;34679;51.436;-2.518;2023-12-14T08:01:33;6.05;;;2.50;;
48859;SDS011;34679;51.436;-2.518;2023-12-14T08:03:59;5.47;;;2.63;;
48859;SDS011;34679;51.436;-2.518;2023-12-14T08:06:25;9.52;;;3.70;;
48859;SDS011;34679;51.436;-2.518;2023-12-14T08:08:50;8.50;;;2.35;;
48859;SDS011;34679;51.436;-2.518;2023-12-14T08:11:16;11.98;;;2.20;;
48859;SDS011;34679;51.436;-2.518;2023-12-14T08:13:42;10.32;;;2.42;;
48859;SDS011;34679;51.436;-2.518;2023-12-14T08:16:08;9.55;;;2.90;;
48859;SDS011;34679;51.436;-2.518;2023-12-14T08:18:34;9.05;;;2.90;;
48859;SDS011;34679;51.436;-2.518;2023-12-14T08:20:59;13.68;;;2.70;;
48859;SDS011;34679;51.436;-2.518;2023-12-14T08:23:25;5.78;;;2.15;;
48859;SDS011;34679;51.436;-2.518;2023-12-14T08:25:56;4.00;;;2.13;;
48859;SDS011;34679;51.436;-2.518;2023-12-14T08:28:25;9.52;;;2.60;;
48859;SDS011;34679;51.436;-2.518;2023-12-14T08:30:51;5.18;;;2.67;;
48859;SDS011;34679;51.436;-2.518;2023-12-14T08:36:20;13.40;;;3.08;;
48859;SDS011;34679;51.436;-2.518;2023-12-14T08:50:10;5.00;;;2.10;;
48859;SDS011;34679;51.436;-2.518;2023-12-14T08:52:37;10.23;;;2.38;;
48859;SDS011;34679;51.436;-2.518;2023-12-14T08:55:05;6.60;;;2.20;;
48859;SDS011;34679;51.436;-2.518;2023-12-14T08:57:32;4.38;;;2.13;;
48859;SDS011;34679;51.436;-2.518;2023-12-14T08:59:57;11.38;;;2.30;;
48859;SDS011;34679;51.436;-2.518;2023-12-14T09:02:23;11.18;;;2.40;;
48859;SDS011;34679;51.436;-2.518;2023-12-14T09:04:49;10.95;;;2.55;;
48859;SDS011;34679;51.436;-2.518;2023-12-14T09:07:14;10.50;;;1.98;;
48859;SDS011;34679;51.436;-2.518;2023-12-14T09:09:40;6.47;;;1.90;;
48859;SDS011;34679;51.436;-2.518;2023-12-14T09:12:06;7.10;;;2.08;;
48859;SDS011;34679;51.436;-2.518;2023-12-14T09:14:31;7.53;;;2.22;;
48859;SDS011;34679;51.436;-2.518;2023-12-14T09:16:57;7.53;;;1.90;;
48859;SDS011;34679;51.436;-2.518;2023-12-14T09:19:23;5.45;;;1.80;;
48859;SDS011;34679;51.436;-2.518;2023-12-14T09:21:48;7.78;;;2.00;;
48859;SDS011;34679;51.436;-2.518;2023-12-14T09:24:14;5.07;;;1.92;;
48859;SDS011;34679;51.436;-2.518;2023-12-14T09:26:40;11.63;;;2.00;;
48859;SDS011;34679;51.436;-2.518;2023-12-14T09:29:05;7.10;;;1.67;;
48859;SDS011;34679;51.436;-2.518;2023-12-14T09:31:32;10.15;;;2.97;;
48859;SDS011;34679;51.436;-2.518;2023-12-14T09:33:57;8.00;;;2.40;;
48859;SDS011;34679;51.436;-2.518;2023-12-14T09:36:23;4.78;;;1.63;;
48859;SDS011;34679;51.436;-2.518;2023-12-14T09:38:49;6.55;;;1.63;;
48859;SDS011;34679;51.436;-2.518;2023-12-14T09:41:14;4.85;;;1.92;;
48859;SDS011;34679;51.436;-2.518;2023-12-14T09:43:40;4.88;;;1.70;;
48859;SDS011;34679;51.436;-2.518;2023-12-14T09:46:06;3.85;;;1.80;;
48859;SDS011;34679;51.436;-2.518;2023-12-14T09:48:33;4.85;;;1.55;;
48859;SDS011;34679;51.436;-2.518;2023-12-14T09:50:59;5.40;;;1.58;;
48859;SDS011;34679;51.436;-2.518;2023-12-14T09:53:25;8.65;;;1.50;;
48859;SDS011;34679;51.436;-2.518;2023-12-14T09:55:51;10.15;;;1.65;;
48859;SDS011;34679;51.436;-2.518;2023-12-14T09:58:16;4.68;;;1.25;;
48859;SDS011;34679;51.436;-2.518;2023-12-14T10:00:42;7.93;;;1.40;;
48859;SDS011;34679;51.436;-2.518;2023-12-14T10:03:21;9.10;;;1.30;;
48859;SDS011;34679;51.436;-2.518;2023-12-14T10:05:49;6.88;;;1.52;;
48859;SDS011;34679;51.436;-2.518;2023-12-14T10:08:15;8.18;;;2.33;;
48859;SDS011;34679;51.436;-2.518;2023-12-14T10:10:41;9.95;;;1.40;;
48859;SDS011;34679;51.436;-2.518;2023-12-14T10:13:08;4.55;;;1.20;;
48859;SDS011;34679;51.436;-2.518;2023-12-14T10:15:40;7.07;;;1.45;;
48859;SDS011;34679;51.436;-2.518;2023-12-14T10:18:07;5.13;;;1.88;;
48859;SDS011;34679;51.436;-2.518;2023-12-14T10:20:33;11.50;;;1.92;;
48859;SDS011;34679;51.436;-2.518;2023-12-14T10:22:58;7.40;;;1.65;;
48859;SDS011;34679;51.436;-2.518;2023-12-14T10:25:24;4.85;;;1.17;;
48859;SDS011;34679;51.436;-2.518;2023-12-14T10:27:51;5.78;;;1.45;;
48859;SDS011;34679;51.436;-2.518;2023-12-14T10:30:19;7.05;;;1.60;;
48859;SDS011;34679;51.436;-2.518;2023-12-14T10:32:48;9.13;;;1.50;;
48859;SDS011;34679;51.436;-2.518;2023-12-14T10:35:15;7.00;;;2.10;;
48859;SDS011;34679;51.436;-2.518;2023-12-14T10:37:42;8.88;;;1.60;;
48859;SDS011;34679;51.436;-2.518;2023-12-14T10:40:11;5.20;;;2.13;;
48859;SDS011;34679;51.436;-2.518;2023-12-14T10:42:40;6.97;;;1.42;;
48859;SDS011;34679;51.436;-2.518;2023-12-14T10:45:08;6.80;;;1.50;;
48859;SDS011;34679;51.436;-2.518;2023-12-14T10:47:39;6.38;;;1.67;;
48859;SDS011;34679;51.436;-2.518;2023-12-14T10:50:07;6.57;;;1.60;;
48859;SDS011;34679;51.436;-2.518;2023-12-14T10:52:36;5.50;;;1.92;;
48859;SDS011;34679;51.436;-2.518;2023-12-14T10:55:10;11.77;;;2.25;;
48859;SDS011;34679;51.436;-2.518;2023-12-14T10:57:43;3.58;;;1.83;;
48859;SDS011;34679;51.436;-2.518;2023-12-14T11:00:08;4.95;;;2.10;;
48859;SDS011;34679;51.436;-2.518;2023-12-14T11:02:41;13.18;;;2.28;;
48859;SDS011;34679;51.436;-2.518;2023-12-14T11:05:11;7.72;;;2.22;;
48859;SDS011;34679;51.436;-2.518;2023-12-14T11:07:47;6.30;;;1.83;;
48859;SDS011;34679;51.436;-2.518;2023-12-14T11:10:38;8.77;;;1.92;;
48859;SDS011;34679;51.436;-2.518;2023-12-14T11:13:09;4.05;;;1.60;;
48859;SDS011;34679;51.436;-2.518;2023-12-14T11:15:37;6.20;;;1.80;;
48859;SDS011;34679;51.436;-2.518;2023-12-14T11:23:13;4.20;;;1.20;;
48859;SDS011;34679;51.436;-2.518;2023-12-14T11:25:43;4.63;;;1.25;;
48859;SDS011;34679;51.436;-2.518;2023-12-14T11:28:09;8.93;;;1.80;;
48859;SDS011;34679;51.436;-2.518;2023-12-14T11:30:35;8.32;;;1.70;;
48859;SDS011;34679;51.436;-2.518;2023-12-14T11:33:02;4.25;;;1.40;;
48859;SDS011;34679;51.436;-2.518;2023-12-14T11:35:28;4.88;;;1.77;;
48859;SDS011;34679;51.436;-2.518;2023-12-14T11:37:54;6.05;;;1.42;;
48859;SDS011;34679;51.436;-2.518;2023-12-14T11:40:27;6.03;;;1.52;;
48859;SDS011;34679;51.436;-2.518;2023-12-14T11:43:00;4.63;;;1.38;;
48859;SDS011;34679;51.436;-2.518;2023-12-14T11:45:26;5.70;;;1.65;;
48859;SDS011;34679;51.436;-2.518;2023-12-14T11:47:52;4.35;;;1.17;;
48859;SDS011;34679;51.436;-2.518;2023-12-14T11:50:18;3.10;;;1.25;;
48859;SDS011;34679;51.436;-2.518;2023-12-14T11:52:45;4.78;;;1.45;;
48859;SDS011;34679;51.436;-2.518;2023-12-14T11:55:11;8.88;;;1.55;;
48859;SDS011;34679;51.436;-2.518;2023-12-14T11:57:37;5.80;;;1.70;;
48859;SDS011;34679;51.436;-2.518;2023-12-14T12:00:02;7.45;;;2.35;;
48859;SDS011;34679;51.436;-2.518;2023-12-14T12:02:29;3.60;;;1.65;;
48859;SDS011;34679;51.436;-2.518;2023-12-14T12:04:55;3.67;;;1.67;;
48859;SDS011;34679;51.436;-2.518;2023-12-14T12:07:21;7.70;;;1.42;;
48859;SDS011;34679;51.436;-2.518;2023-12-14T12:09:46;5.18;;;1.83;;
48859;SDS011;34679;51.436;-2.518;2023-12-14T12:12:12;6.35;;;1.88;;
48859;SDS011;34679;51.436;-2.518;2023-12-14T12:14:41;6.55;;;2.10;;
48859;SDS011;34679;51.436;-2.518;2023-12-14T12:17:07;6.57;;;2.08;;
48859;SDS011;34679;51.436;-2.518;2023-12-14T12:19:34;11.38;;;2.75;;
48859;SDS011;34679;51.436;-2.518;2023-12-14T12:22:00;5.20;;;2.78;;
48859;SDS011;34679;51.436;-2.518;2023-12-14T12:24:26;9.43;;;2.65;;
48859;SDS011;34679;51.436;-2.518;2023-12-14T12:26:52;7.72;;;2.67;;
48859;SDS011;34679;51.436;-2.518;2023-12-14T12:29:18;6.32;;;2.70;;
48859;SDS011;34679;51.436;-2.518;2023-12-14T12:31:44;13.38;;;3.47;;
48859;SDS011;34679;51.436;-2.518;2023-12-14T12:34:10;13.00;;;3.90;;
48859;SDS011;34679;51.436;-2.518;2023-12-14T12:36:37;7.47;;;4.10;;
48859;SDS011;34679;51.436;-2.518;2023-12-14T12:39:03;9.10;;;4.38;;
48859;SDS011;34679;51.436;-2.518;2023-12-14T12:41:31;15.07;;;5.63;;
48859;SDS011;34679;51.436;-2.518;2023-12-14T12:43:58;7.10;;;4.82;;
48859;SDS011;34679;51.436;-2.518;2023-12-14T12:46:30;8.77;;;4.37;;
48859;SDS011;34679;51.436;-2.518;2023-12-14T12:49:00;11.73;;;4.60;;
48859;SDS011;34679;51.436;-2.518;2023-12-14T12:51:26;15.07;;;5.13;;
48859;SDS011;34679;51.436;-2.518;2023-12-14T12:53:52;8.68;;;4.30;;
48859;SDS011;34679;51.436;-2.518;2023-12-14T12:56:19;10.20;;;4.80;;
48859;SDS011;34679;51.436;-2.518;2023-12-14T12:58:45;7.07;;;4.82;;
48859;SDS011;34679;51.436;-2.518;2023-12-14T13:01:11;8.57;;;4.55;;
48859;SDS011;34679;51.436;-2.518;2023-12-14T13:03:37;6.32;;;4.00;;
48859;SDS011;34679;51.436;-2.518;2023-12-14T13:06:02;10.65;;;4.40;;
48859;SDS011;34679;51.436;-2.518;2023-12-14T13:08:28;10.50;;;4.53;;
48859;SDS011;34679;51.436;-2.518;2023-12-14T13:10:54;10.25;;;4.63;;
48859;SDS011;34679;51.436;-2.518;2023-12-14T13:13:19;7.45;;;4.00;;
48859;SDS011;34679;51.436;-2.518;2023-12-14T13:15:45;9.50;;;4.40;;
48859;SDS011;34679;51.436;-2.518;2023-12-14T13:18:11;7.05;;;4.07;;
48859;SDS011;34679;51.436;-2.518;2023-12-14T13:20:37;12.77;;;5.45;;
48859;SDS011;34679;51.436;-2.518;2023-12-14T13:23:03;6.88;;;3.35;;
48859;SDS011;34679;51.436;-2.518;2023-12-14T13:25:28;6.40;;;3.00;;
48859;SDS011;34679;51.436;-2.518;2023-12-14T13:27:54;7.85;;;2.90;;
48859;SDS011;34679;51.436;-2.518;2023-12-14T13:30:19;7.60;;;2.55;;
48859;SDS011;34679;51.436;-2.518;2023-12-14T13:32:47;7.47;;;2.95;;
48859;SDS011;34679;51.436;-2.518;2023-12-14T13:35:13;6.78;;;4.03;;
48859;SDS011;34679;51.436;-2.518;2023-12-14T13:37:39;7.70;;;3.88;;
48859;SDS011;34679;51.436;-2.518;2023-12-14T13:40:05;6.90;;;2.92;;
48859;SDS011;34679;51.436;-2.518;2023-12-14T13:42:31;12.10;;;3.90;;
48859;SDS011;34679;51.436;-2.518;2023-12-14T13:45:00;6.63;;;3.22;;
48859;SDS011;34679;51.436;-2.518;2023-12-14T13:47:25;8.40;;;2.80;;
48859;SDS011;34679;51.436;-2.518;2023-12-14T13:49:51;8.35;;;3.40;;
48859;SDS011;34679;51.436;-2.518;2023-12-14T13:52:18;9.68;;;3.13;;
48859;SDS011;34679;51.436;-2.518;2023-12-14T13:54:43;7.82;;;2.97;;
48859;SDS011;34679;51.436;-2.518;2023-12-14T13:57:09;7.00;;;3.00;;
48859;SDS011;34679;51.436;-2.518;2023-12-14T13:59:35;9.63;;;2.60;;
48859;SDS011;34679;51.436;-2.518;2023-12-14T14:02:00;4.93;;;2.30;;
48859;SDS011;34679;51.436;-2.518;2023-12-14T14:04:26;6.32;;;2.20;;
48859;SDS011;34679;51.436;-2.518;2023-12-14T14:06:52;8.02;;;2.50;;
48859;SDS011;34679;51.436;-2.518;2023-12-14T14:09:17;3.25;;;1.90;;
48859;SDS011;34679;51.436;-2.518;2023-12-14T14:11:44;6.88;;;2.70;;
48859;SDS011;34679;51.436;-2.518;2023-12-14T14:14:13;8.98;;;2.05;;
48859;SDS011;34679;51.436;-2.518;2023-12-14T14:16:39;7.38;;;2.47;;
48859;SDS011;34679;51.436;-2.518;2023-12-14T14:19:05;8.50;;;2.38;;
48859;SDS011;34679;51.436;-2.518;2023-12-14T14:21:31;7.57;;;3.08;;
48859;SDS011;34679;51.436;-2.518;2023-12-14T14:23:56;11.30;;;2.50;;
48859;SDS011;34679;51.436;-2.518;2023-12-14T14:26:22;6.65;;;2.60;;
48859;SDS011;34679;51.436;-2.518;2023-12-14T14:28:48;7.35;;;2.30;;
48859;SDS011;34679;51.436;-2.518;2023-12-14T14:31:13;6.88;;;2.50;;
48859;SDS011;34679;51.436;-2.518;2023-12-14T14:33:39;9.10;;;2.33;;
48859;SDS011;34679;51.436;-2.518;2023-12-14T14:36:05;6.00;;;2.20;;
48859;SDS011;34679;51.436;-2.518;2023-12-14T14:38:33;8.20;;;2.33;;
48859;SDS011;34679;51.436;-2.518;2023-12-14T14:40:59;8.20;;;2.58;;
48859;SDS011;34679;51.436;-2.518;2023-12-14T14:43:24;4.38;;;2.00;;
48859;SDS011;34679;51.436;-2.518;2023-12-14T14:45:50;13.77;;;3.17;;
48859;SDS011;34679;51.436;-2.518;2023-12-14T14:48:16;11.52;;;2.17;;
48859;SDS011;34679;51.436;-2.518;2023-12-14T14:50:43;8.85;;;3.25;;